Time;durP1;ratioP1;P1;durP2;ratioP2;P2;SDS_P1;SDS_P2;PMS_P1;PMS_P2;Temp;Humidity;BMP_temperature;BMP_pressure;BME280_temperature;BME280_humidity;BME280_pressure;Samples;Min_cycle;Max_cycle;Signal;HPM_P1;HPM_P2
2023/07/10 00:01:32;;;;;;;;;;;19.10;99.90;;;;;;5070842;28;19963;-68
2023/07/10 00:03:59;;;;;;;;;;;18.90;99.90;;;;;;5072150;28;19995;-68
2023/07/10 00:06:25;;;;;;;;;;;19.40;99.90;;;;;;5072180;28;19956;-68
2023/07/10 00:08:52;;;;;;;;;;;19.50;99.90;;;;;;5073896;28;19909;-67
2023/07/10 00:11:25;;;;;;;;;;;19.60;99.90;;;;;;5076601;28;19908;-68
2023/07/10 00:13:54;;;;;;;;;;;19.80;99.90;;;;;;5076043;28;25088;-67
2023/07/10 00:16:21;;;;;;;;;;;19.90;99.90;;;;;;5075160;28;20022;-68
2023/07/10 00:18:49;;;;;;;;;;;20.10;99.90;;;;;;5076406;28;25093;-68
2023/07/10 00:21:17;;;;;;;;;;;20.40;99.90;;;;;;5076731;28;25095;-67
2023/07/10 00:23:44;;;;;;;;;;;20.50;99.90;;;;;;5075893;28;20089;-67
2023/07/10 00:26:14;;;;;;;;;;;20.50;99.90;;;;;;5076007;28;25069;-67
2023/07/10 00:28:42;;;;;;;;;;;20.40;99.90;;;;;;5076115;28;19947;-67
2023/07/10 00:31:12;;;;;;;;;;;20.60;99.90;;;;;;5075791;28;20052;-67
2023/07/10 00:33:39;;;;;;;;;;;20.10;99.90;;;;;;5075782;28;19966;-68
2023/07/10 00:36:26;;;;;;;;;;;20.30;99.90;;;;;;5075899;28;25140;-68
2023/07/10 00:38:53;;;;;;;;;;;20.30;99.90;;;;;;5071891;28;20003;-67
2023/07/10 00:41:21;;;;;;;;;;;20.70;99.90;;;;;;5075606;28;25079;-67
2023/07/10 00:43:51;;;;;;;;;;;20.70;99.90;;;;;;5075864;28;19979;-70
2023/07/10 00:46:18;;;;;;;;;;;20.40;99.90;;;;;;5075958;28;19959;-68
2023/07/10 00:48:47;;;;;;;;;;;20.20;99.90;;;;;;5075812;28;19951;-67
2023/07/10 00:51:49;;;;;;;;;;;20.30;99.90;;;;;;5075770;28;25123;-67
2023/07/10 00:54:29;;;;;;;;;;;20.30;99.90;;;;;;5053552;28;25146;-67
2023/07/10 00:56:57;;;;;;;;;;;20.30;99.90;;;;;;5072811;28;20033;-67
2023/07/10 00:59:27;;;;;;;;;;;20.70;99.90;;;;;;5075818;28;25063;-67
2023/07/10 01:02:12;;;;;;;;;;;20.80;99.90;;;;;;5075784;28;25058;-68
2023/07/10 01:04:45;;;;;;;;;;;21.40;99.90;;;;;;5075255;28;20399;-68
2023/07/10 01:07:13;;;;;;;;;;;21.30;99.30;;;;;;5075542;28;19968;-67
2023/07/10 01:09:45;;;;;;;;;;;21.60;99.90;;;;;;5074293;28;19978;-68
2023/07/10 01:12:12;;;;;;;;;;;22.10;99.90;;;;;;5075545;28;19968;-67
2023/07/10 01:14:39;;;;;;;;;;;22.00;99.40;;;;;;5075350;28;20064;-67
2023/07/10 01:17:06;;;;;;;;;;;22.30;99.10;;;;;;5074918;28;25084;-67
2023/07/10 01:19:34;;;;;;;;;;;22.40;99.30;;;;;;5073389;28;20045;-68
2023/07/10 01:22:01;;;;;;;;;;;22.20;96.00;;;;;;5075198;28;19981;-67
2023/07/10 01:24:28;;;;;;;;;;;21.90;95.60;;;;;;5075090;28;25060;-68
2023/07/10 01:26:57;;;;;;;9.43;3.30;;;21.70;96.60;;;;;;5075518;28;20136;-68
2023/07/10 01:29:48;;;;;;;3.03;1.63;;;21.80;96.00;;;;;;5075427;28;20266;-68
2023/07/10 01:32:19;;;;;;;1.33;0.60;;;22.10;95.70;;;;;;5075973;28;20179;-68
2023/07/10 01:34:54;;;;;;;3.90;0.70;;;21.70;92.30;;;;;;5075341;28;20639;-68
2023/07/10 01:37:22;;;;;;;0.70;0.50;;;21.70;90.00;;;;;;5075168;28;20659;-67
2023/07/10 01:39:52;;;;;;;0.40;0.40;;;21.50;92.00;;;;;;5075810;28;20168;-68
2023/07/10 01:42:19;;;;;;;;;;;22.10;90.00;;;;;;5074789;28;20263;-67
2023/07/10 01:44:47;;;;;;;;;;;22.10;88.00;;;;;;5074545;28;20106;-68
2023/07/10 01:47:14;;;;;;;;;;;22.20;86.30;;;;;;5075305;28;20063;-68
2023/07/10 01:49:49;;;;;;;;;;;22.30;87.20;;;;;;5075104;28;25153;-67
2023/07/10 01:52:17;;;;;;;;;;;22.30;87.60;;;;;;5075252;28;25109;-68
2023/07/10 01:54:44;;;;;;;;;;;22.70;83.20;;;;;;5074884;28;25059;-68
2023/07/10 01:57:12;;;;;;;;;;;22.20;83.80;;;;;;5075293;28;19965;-68
2023/07/10 01:59:39;;;;;;;;;;;22.30;87.70;;;;;;5075074;28;20445;-68
2023/07/10 02:02:06;;;;;;;;;;;22.10;84.40;;;;;;5075286;28;20018;-68
2023/07/10 02:04:33;;;;;;;;;;;21.90;90.80;;;;;;5074741;28;25076;-69
2023/07/10 02:07:00;;;;;;;;;;;22.40;86.00;;;;;;5074340;28;20136;-67
2023/07/10 02:09:28;;;;;;;;;;;22.90;83.70;;;;;;5074582;28;20106;-68
2023/07/10 02:11:56;;;;;;;;;;;22.40;81.10;;;;;;5074697;28;25073;-67
2023/07/10 02:14:23;;;;;;;;;;;22.60;84.00;;;;;;5074795;28;19986;-68
2023/07/10 02:16:50;;;;;;;;;;;22.80;85.60;;;;;;5073227;28;20436;-67
2023/07/10 02:19:18;;;;;;;;;;;23.20;83.00;;;;;;5074134;28;20555;-66
2023/07/10 02:21:45;;;;;;;;;;;23.10;79.40;;;;;;5074675;28;20159;-66
2023/07/10 02:24:12;;;;;;;;;;;23.60;76.40;;;;;;5073558;28;20138;-67
2023/07/10 02:26:39;;;;;;;;;;;23.80;73.50;;;;;;5074395;28;19964;-67
2023/07/10 02:29:06;;;;;;;;;;;23.60;75.00;;;;;;5074418;28;20106;-68
2023/07/10 02:31:33;;;;;;;;;;;23.00;74.40;;;;;;5073402;28;20059;-67
2023/07/10 02:34:00;;;;;;;;;;;22.40;78.30;;;;;;5073747;28;20072;-68
2023/07/10 02:36:28;;;;;;;;;;;22.40;78.70;;;;;;5073537;28;19971;-67
2023/07/10 02:38:54;;;;;;;;;;;22.40;80.20;;;;;;5074042;28;20611;-68
2023/07/10 02:41:21;;;;;;;;;;;22.30;76.10;;;;;;5072586;28;20084;-68
2023/07/10 02:43:48;;;;;;;;;;;22.30;79.10;;;;;;5074134;28;20120;-67
2023/07/10 02:46:15;;;;;;;;;;;22.50;76.30;;;;;;5074172;28;20161;-68
2023/07/10 02:48:42;;;;;;;;;;;22.80;74.70;;;;;;5072942;28;20087;-68
2023/07/10 02:51:09;;;;;;;;;;;23.00;73.60;;;;;;5073662;28;20439;-67
2023/07/10 02:53:36;;;;;;;;;;;23.10;74.40;;;;;;5073006;28;20084;-67
2023/07/10 02:56:03;;;;;;;;;;;23.60;70.50;;;;;;5073761;28;20104;-68
2023/07/10 02:58:30;;;;;;;;;;;23.30;70.00;;;;;;5073462;28;20142;-68
2023/07/10 03:00:58;;;;;;;;;;;23.00;69.90;;;;;;5072707;28;20180;-68
2023/07/10 03:03:25;;;;;;;;;;;23.30;67.80;;;;;;5073083;28;20487;-68
2023/07/10 03:05:58;;;;;;;;;;;23.70;67.60;;;;;;5072937;28;20104;-67
2023/07/10 03:08:26;;;;;;;;;;;23.50;60.10;;;;;;5072837;28;20127;-68
2023/07/10 03:11:04;;;;;;;;;;;23.00;60.10;;;;;;5073124;28;19965;-68
2023/07/10 03:13:31;;;;;;;;;;;22.90;56.20;;;;;;5073555;28;20009;-68
2023/07/10 03:16:06;;;;;;;;;;;23.00;57.20;;;;;;5073442;28;20154;-67
2023/07/10 03:18:33;;;;;;;;;;;23.20;56.90;;;;;;5072607;28;20084;-68
2023/07/10 03:20:59;;;;;;;;;;;23.00;57.80;;;;;;5072720;28;20104;-68
2023/07/10 03:23:26;;;;;;;;;;;23.00;59.20;;;;;;5073129;28;20644;-67
2023/07/10 03:25:53;;;;;;;;;;;22.90;59.10;;;;;;5072427;28;20122;-68
2023/07/10 03:28:20;;;;;;;;;;;23.10;58.30;;;;;;5072826;28;19965;-67
2023/07/10 03:30:47;;;;;;;;;;;22.90;58.50;;;;;;5071661;28;20095;-68
2023/07/10 03:33:15;;;;;;;;;;;23.00;59.10;;;;;;5072345;28;20139;-67
2023/07/10 03:35:42;;;;;;;;;;;23.20;56.70;;;;;;5073267;28;20091;-68
2023/07/10 03:38:09;;;;;;;;;;;22.90;57.00;;;;;;5073252;28;20126;-68
2023/07/10 03:40:36;;;;;;;;;;;22.80;59.10;;;;;;5073120;28;20148;-68
2023/07/10 03:43:03;;;;;;;;;;;22.80;60.00;;;;;;5072883;28;20130;-68
2023/07/10 03:45:31;;;;;;;;;;;23.30;58.30;;;;;;5072290;28;20131;-67
2023/07/10 03:47:58;;;;;;;;;;;23.20;54.70;;;;;;5071157;28;19973;-68
2023/07/10 03:50:25;;;;;;;;;;;23.20;55.30;;;;;;5072352;28;20164;-68
2023/07/10 03:52:52;;;;;;;;;;;23.10;52.90;;;;;;5072083;28;20098;-68
2023/07/10 03:55:18;;;;;;;;;;;23.30;51.40;;;;;;5070657;28;20398;-69
2023/07/10 03:57:45;;;;;;;;;;;22.90;51.20;;;;;;5072112;28;20573;-68
2023/07/10 04:00:12;;;;;;;;;;;23.20;51.10;;;;;;5071793;28;20118;-67
2023/07/10 04:02:39;;;;;;;;;;;23.10;51.10;;;;;;5071859;28;20112;-67
2023/07/10 04:05:06;;;;;;;;;;;23.30;49.80;;;;;;5072044;28;20195;-67
2023/07/10 04:07:34;;;;;;;0.90;0.30;;;23.40;47.70;;;;;;5071452;28;20565;-67
2023/07/10 04:13:24;;;;;;;1.53;0.43;;;23.20;48.70;;;;;;5071992;28;20194;-68
2023/07/10 04:16:18;;;;;;;1.47;0.53;;;23.20;48.80;;;;;;5071706;28;20191;-68
2023/07/10 04:18:48;;;;;;;1.60;0.80;;;23.30;48.10;;;;;;5072628;28;20508;-67
2023/07/10 04:21:21;;;;;;;2.93;0.60;;;23.20;48.10;;;;;;5072950;28;20260;-68
2023/07/10 04:23:49;;;;;;;0.50;0.30;;;23.30;48.00;;;;;;5073224;28;20219;-69
2023/07/10 04:26:24;;;;;;;3.80;0.90;;;22.90;47.10;;;;;;5072746;28;20196;-68
2023/07/10 04:28:55;;;;;;;1.23;0.50;;;22.90;48.20;;;;;;5072857;28;20175;-68
2023/07/10 04:31:24;;;;;;;2.90;0.60;;;22.80;47.30;;;;;;5072681;28;20183;-68
2023/07/10 04:33:53;;;;;;;0.53;0.40;;;22.40;48.30;;;;;;5072493;28;20179;-67
2023/07/10 04:36:21;;;;;;;2.70;0.50;;;22.30;49.20;;;;;;5072845;28;20169;-67
2023/07/10 04:38:48;;;;;;;;;;;22.50;50.10;;;;;;5071583;28;20080;-67
2023/07/10 04:41:20;;;;;;;;;;;22.70;49.10;;;;;;5072265;28;20455;-67
2023/07/10 04:43:47;;;;;;;;;;;22.90;49.60;;;;;;5072482;28;20569;-67
2023/07/10 04:46:15;;;;;;;;;;;22.50;48.40;;;;;;5072235;28;20663;-67
2023/07/10 04:48:45;;;;;;;;;;;22.20;48.00;;;;;;5072740;28;25169;-67
2023/07/10 04:51:13;;;;;;;;;;;22.10;48.40;;;;;;5072746;28;25075;-67
2023/07/10 04:53:39;;;;;;;;;;;22.10;49.90;;;;;;5072399;28;20101;-68
2023/07/10 04:56:07;;;;;;;;;;;22.10;50.20;;;;;;5076732;28;20126;-67
2023/07/10 04:58:47;;;;;;;;;;;22.10;49.30;;;;;;5075882;28;20102;-70
2023/07/10 05:01:15;;;;;;;;;;;22.20;50.40;;;;;;5076186;28;20448;-68
2023/07/10 05:03:41;;;;;;;;;;;22.30;51.10;;;;;;5075166;28;20161;-68
2023/07/10 05:06:08;;;;;;;;;;;22.40;50.60;;;;;;5076226;28;20103;-68
2023/07/10 05:08:35;;;;;;;;;;;22.10;51.10;;;;;;5075804;28;25101;-68
2023/07/10 05:11:02;;;;;;;;;;;22.00;49.80;;;;;;5076306;28;20161;-68
2023/07/10 05:13:29;;;;;;;;;;;21.80;51.40;;;;;;5075882;28;20107;-68
2023/07/10 05:15:57;;;;;;;;;;;21.80;50.80;;;;;;5074387;28;20139;-68
2023/07/10 05:18:27;;;;;;;;;;;21.90;52.40;;;;;;5076008;28;20358;-69
2023/07/10 05:20:54;;;;;;;;;;;21.90;52.90;;;;;;5075685;28;20096;-68
2023/07/10 05:23:21;;;;;;;;;;;21.70;53.50;;;;;;5075546;28;20545;-68
2023/07/10 05:26:20;;;;;;;;;;;21.60;54.80;;;;;;5075907;28;20484;-68
2023/07/10 05:28:47;;;;;;;;;;;21.50;55.60;;;;;;5063260;28;25060;-68
2023/07/10 05:31:14;;;;;;;;;;;21.20;56.20;;;;;;5075698;28;20167;-68
2023/07/10 05:33:41;;;;;;;;;;;21.10;57.20;;;;;;5074987;28;20179;-68
2023/07/10 05:36:10;;;;;;;;;;;20.90;59.20;;;;;;5075533;28;20065;-68
2023/07/10 05:38:37;;;;;;;;;;;20.70;59.60;;;;;;5075106;28;20098;-68
2023/07/10 05:41:04;;;;;;;;;;;20.50;61.90;;;;;;5075064;28;19963;-67
2023/07/10 05:43:32;;;;;;;;;;;20.30;64.20;;;;;;5074880;28;25049;-68
2023/07/10 05:45:59;;;;;;;;;;;20.00;68.00;;;;;;5075223;28;20470;-68
2023/07/10 05:48:29;;;;;;;;;;;19.80;72.50;;;;;;5074156;28;19910;-67
2023/07/10 05:50:56;;;;;;;;;;;19.60;73.40;;;;;;5074384;28;25056;-67
2023/07/10 05:53:22;;;;;;;;;;;19.50;74.90;;;;;;5074612;28;20366;-67
2023/07/10 05:55:51;;;;;;;;;;;19.40;76.80;;;;;;5074109;28;19950;-68
2023/07/10 05:58:19;;;;;;;;;;;19.30;78.20;;;;;;5074571;28;19952;-68
2023/07/10 06:00:47;;;;;;;;;;;19.30;80.40;;;;;;5074168;28;19904;-68
2023/07/10 06:03:15;;;;;;;;;;;19.10;80.90;;;;;;5072735;28;20312;-68
2023/07/10 06:05:42;;;;;;;;;;;19.00;83.20;;;;;;5072911;28;19958;-70
2023/07/10 06:08:09;;;;;;;;;;;19.00;87.40;;;;;;5072407;28;24071;-68
2023/07/10 06:10:36;;;;;;;;;;;18.90;90.10;;;;;;5073867;28;19948;-70
2023/07/10 06:13:03;;;;;;;;;;;18.90;92.20;;;;;;5075586;28;19911;-67
2023/07/10 06:15:31;;;;;;;;;;;18.80;93.50;;;;;;5073724;28;24128;-67
2023/07/10 06:17:58;;;;;;;;;;;18.70;94.30;;;;;;5073859;28;20039;-67
2023/07/10 06:20:26;;;;;;;;;;;18.70;94.70;;;;;;5073964;28;24137;-67
2023/07/10 06:22:53;;;;;;;;;;;18.60;96.20;;;;;;5073388;28;19924;-68
2023/07/10 06:25:20;;;;;;;;;;;18.50;98.20;;;;;;5073592;28;19912;-69
2023/07/10 06:27:46;;;;;;;;;;;18.30;99.10;;;;;;5072808;28;24051;-67
2023/07/10 06:30:14;;;;;;;;;;;18.30;99.90;;;;;;5073741;28;19984;-68
2023/07/10 06:32:41;;;;;;;;;;;18.20;99.90;;;;;;5072047;28;20247;-67
2023/07/10 06:35:12;;;;;;;;;;;18.20;99.90;;;;;;5073524;28;19908;-68
2023/07/10 06:37:44;;;;;;;;;;;18.10;99.90;;;;;;5073731;28;24058;-68
2023/07/10 06:40:13;;;;;;;;;;;18.00;99.90;;;;;;5074190;28;19911;-68
2023/07/10 06:42:40;;;;;;;;;;;18.00;99.90;;;;;;5073668;28;19919;-68
2023/07/10 06:45:07;;;;;;;;;;;17.90;99.90;;;;;;5073454;28;19912;-68
2023/07/10 06:47:39;;;;;;;;;;;17.70;99.90;;;;;;5073267;28;19904;-69
2023/07/10 06:50:07;;;;;;;;;;;17.70;99.90;;;;;;5073542;28;24061;-67
2023/07/10 06:52:37;;;;;;;;;;;17.60;99.90;;;;;;5073769;28;25116;-68
2023/07/10 06:55:04;;;;;;;;;;;17.50;99.90;;;;;;5073365;28;20049;-68
2023/07/10 06:57:31;;;;;;;;;;;17.40;99.90;;;;;;5073029;28;19911;-68
2023/07/10 06:59:58;;;;;;;;;;;17.30;99.90;;;;;;5073348;28;20258;-68
2023/07/10 07:02:25;;;;;;;;;;;17.20;99.90;;;;;;5075729;28;19904;-67
2023/07/10 07:04:52;;;;;;;;;;;17.10;99.90;;;;;;5073342;28;24127;-68
2023/07/10 07:07:19;;;;;;;;;;;16.90;99.90;;;;;;5076988;28;24062;-68
2023/07/10 07:09:46;;;;;;;;;;;16.80;99.90;;;;;;5074527;28;19904;-67
2023/07/10 07:12:13;;;;;;;;;;;16.70;99.90;;;;;;5073091;28;25149;-69
2023/07/10 07:14:39;;;;;;;;;;;16.70;99.90;;;;;;5075503;28;24078;-68
2023/07/10 07:17:06;;;;;;;;;;;16.60;99.90;;;;;;5074570;28;25156;-68
2023/07/10 07:19:34;;;;;;;;;;;16.40;99.90;;;;;;5073466;28;24058;-68
2023/07/10 07:22:01;;;;;;;;;;;16.20;99.90;;;;;;5073906;28;19916;-67
2023/07/10 07:24:28;;;;;;;;;;;16.20;99.90;;;;;;5077135;28;19960;-68
2023/07/10 07:26:55;;;;;;;;;;;16.10;99.90;;;;;;5073508;28;20326;-66
2023/07/10 07:29:22;;;;;;;;;;;16.00;99.90;;;;;;5073171;28;20317;-68
2023/07/10 07:31:49;;;;;;;;;;;16.00;99.90;;;;;;5075734;28;20386;-70
2023/07/10 07:34:16;;;;;;;;;;;16.00;99.90;;;;;;5072679;28;19912;-68
2023/07/10 07:36:43;;;;;;;;;;;16.00;99.90;;;;;;5073561;28;19930;-67
2023/07/10 07:39:09;;;;;;;;;;;15.90;99.90;;;;;;5072779;28;19911;-70
2023/07/10 07:41:36;;;;;;;;;;;15.80;99.90;;;;;;5073778;28;19911;-69
2023/07/10 07:44:03;;;;;;;;;;;15.70;99.90;;;;;;5073832;28;19916;-67
2023/07/10 07:46:30;;;;;;;;;;;15.70;99.90;;;;;;5073353;28;19950;-68
2023/07/10 07:48:57;;;;;;;;;;;15.70;99.90;;;;;;5072871;28;19958;-68
2023/07/10 07:51:24;;;;;;;;;;;15.50;99.90;;;;;;5072214;28;19909;-68
2023/07/10 07:54:01;;;;;;;;;;;15.50;99.90;;;;;;5074037;28;19905;-68
2023/07/10 07:56:28;;;;;;;;;;;15.40;99.90;;;;;;5073222;28;19943;-67
2023/07/10 07:58:54;;;;;;;;;;;15.30;99.90;;;;;;5072898;28;19951;-64
2023/07/10 08:01:21;;;;;;;;;;;15.20;99.90;;;;;;5073748;28;19911;-67
2023/07/10 08:03:48;;;;;;;;;;;15.20;99.90;;;;;;5073203;28;24060;-68
2023/07/10 08:06:15;;;;;;;;;;;15.20;99.90;;;;;;5072469;28;20269;-67
2023/07/10 08:08:42;;;;;;;;;;;15.10;99.90;;;;;;5073691;28;19904;-68
2023/07/10 08:11:09;;;;;;;;;;;15.00;99.90;;;;;;5073630;28;19978;-67
2023/07/10 08:13:36;;;;;;;;;;;14.90;99.90;;;;;;5072635;28;19904;-67
2023/07/10 08:16:04;;;;;;;;;;;14.80;99.90;;;;;;5075507;28;20035;-67
2023/07/10 08:18:31;;;;;;;;;;;14.70;99.90;;;;;;5071754;28;19912;-68
2023/07/10 08:21:02;;;;;;;;;;;14.50;99.90;;;;;;5072550;28;19905;-69
2023/07/10 08:23:28;;;;;;;;;;;14.40;99.90;;;;;;5072253;28;24087;-69
2023/07/10 08:25:55;;;;;;;;;;;14.30;99.90;;;;;;5071176;28;20038;-69
2023/07/10 08:28:22;;;;;;;;;;;14.30;99.90;;;;;;5072727;28;19908;-70
2023/07/10 08:30:49;;;;;;;;;;;14.20;99.90;;;;;;5075962;28;19904;-69
2023/07/10 08:33:16;;;;;;;;;;;14.10;99.90;;;;;;5076278;28;20455;-69
2023/07/10 08:35:43;;;;;;;;;;;14.00;99.90;;;;;;5076447;28;24181;-69
2023/07/10 08:38:10;;;;;;;;;;;13.90;99.90;;;;;;5075927;28;24056;-68
2023/07/10 08:40:37;;;;;;;;;;;13.80;99.90;;;;;;5074859;28;19974;-67
2023/07/10 08:43:24;;;;;;;;;;;13.80;99.90;;;;;;5074698;28;19958;-67
2023/07/10 08:45:53;;;;;;;;;;;13.80;99.90;;;;;;5075428;28;19912;-68
2023/07/10 08:48:23;;;;;;;;;;;13.80;99.90;;;;;;5075812;28;19950;-69
2023/07/10 08:50:50;;;;;;;;;;;13.80;99.90;;;;;;5075966;28;20266;-68
2023/07/10 08:53:22;;;;;;;;;;;13.70;99.90;;;;;;5075794;28;19927;-70
2023/07/10 08:55:58;;;;;;;;;;;13.60;99.90;;;;;;5076159;28;19927;-68
2023/07/10 08:58:28;;;;;;;;;;;13.70;99.90;;;;;;5074320;28;24059;-68
2023/07/10 09:00:59;;;;;;;;;;;13.70;99.90;;;;;;5075824;28;24143;-68
2023/07/10 09:03:35;;;;;;;;;;;13.70;99.90;;;;;;5075940;28;24077;-68
2023/07/10 09:06:03;;;;;;;;;;;13.80;99.90;;;;;;5075623;28;20445;-67
2023/07/10 09:08:32;;;;;;;;;;;13.60;99.90;;;;;;5075619;28;19904;-68
2023/07/10 09:11:01;;;;;;;;;;;13.50;99.90;;;;;;5075442;28;20312;-69
2023/07/10 09:13:34;;;;;;;;;;;13.40;99.90;;;;;;5075160;28;20383;-68
2023/07/10 09:16:01;;;;;;;;;;;13.30;99.90;;;;;;5076349;28;19904;-68
2023/07/10 09:18:31;;;;;;;;;;;13.20;99.90;;;;;;5075552;28;24066;-68
2023/07/10 09:20:59;;;;;;;;;;;13.10;99.90;;;;;;5075412;28;19911;-68
2023/07/10 09:23:30;;;;;;;;;;;13.00;99.90;;;;;;5074990;28;20436;-69
2023/07/10 09:25:59;;;;;;;;;;;12.90;99.90;;;;;;5074047;28;19909;-70
2023/07/10 09:28:27;;;;;;;;;;;12.80;99.90;;;;;;5075176;28;20247;-69
2023/07/10 09:30:59;;;;;;;;;;;12.70;99.90;;;;;;5075342;28;24108;-69
2023/07/10 09:33:46;;;;;;;;;;;12.70;99.90;;;;;;5074960;28;25133;-67
2023/07/10 09:36:16;;;;;;;;;;;12.70;99.90;;;;;;5071051;28;19987;-66
2023/07/10 09:38:45;;;;;;;;;;;12.70;99.90;;;;;;5075046;28;19927;-69
2023/07/10 09:41:13;;;;;;;;;;;12.60;99.90;;;;;;5074991;28;19904;-68
2023/07/10 09:43:48;;;;;;;;;;;12.50;99.90;;;;;;5075266;28;19908;-69
2023/07/10 09:46:15;;;;;;;;;;;12.30;99.90;;;;;;5075187;28;24119;-69
2023/07/10 09:48:44;;;;;;;;;;;12.10;99.90;;;;;;5077991;28;24067;-68
2023/07/10 09:51:12;;;;;;;;;;;12.00;99.90;;;;;;5074724;28;19947;-69
2023/07/10 09:53:45;;;;;;;;;;;12.00;99.90;;;;;;5074999;28;19958;-68
2023/07/10 09:56:25;;;;;;;;;;;11.90;99.90;;;;;;5075105;28;20073;-69
2023/07/10 09:58:56;;;;;;;;;;;11.70;99.90;;;;;;5074869;28;19911;-68
2023/07/10 10:01:27;;;;;;;;;;;11.60;99.90;;;;;;5074652;28;19912;-69
2023/07/10 10:03:55;;;;;;;;;;;11.50;99.90;;;;;;5075227;28;19913;-67
2023/07/10 10:06:23;;;;;;;;;;;11.40;99.90;;;;;;5074685;28;19999;-67
2023/07/10 10:08:51;;;;;;;;;;;11.40;99.90;;;;;;5074606;28;24051;-69
2023/07/10 10:11:19;;;;;;;;;;;11.40;99.90;;;;;;5074489;28;19920;-69
2023/07/10 10:13:56;;;;;;;;;;;11.40;99.90;;;;;;5074314;28;19904;-68
2023/07/10 10:16:25;;;;;;;;;;;11.50;99.90;;;;;;5074798;28;19998;-68
2023/07/10 10:19:09;;;;;;;;;;;11.40;99.90;;;;;;5074612;28;24150;-68
2023/07/10 10:21:36;;;;;;;;;;;11.40;99.90;;;;;;5074221;28;19904;-69
2023/07/10 10:24:07;;;;;;;;;;;11.40;99.90;;;;;;5074456;28;19935;-69
2023/07/10 10:26:53;;;;;;;;;;;11.40;99.90;;;;;;5074516;28;19905;-69
2023/07/10 10:29:31;;;;;;;;;;;11.30;99.90;;;;;;5072863;28;20424;-69
2023/07/10 10:32:01;;;;;;;;;;;11.10;99.90;;;;;;5074171;28;19910;-69
2023/07/10 10:34:32;;;;;;;;;;;11.00;99.90;;;;;;5074057;28;19975;-69
2023/07/10 10:37:07;;;;;;;;;;;10.80;99.90;;;;;;5074136;28;20029;-69
2023/07/10 10:39:43;;;;;;;;;;;10.60;99.90;;;;;;5074254;28;19904;-69
2023/07/10 10:42:30;;;;;;;;;;;10.50;99.90;;;;;;5074066;28;19911;-68
2023/07/10 10:45:00;;;;;;;;;;;10.40;99.90;;;;;;5069377;28;25096;-68
2023/07/10 10:47:42;;;;;;;;;;;10.30;99.90;;;;;;5073686;28;19912;-68
2023/07/10 10:50:12;;;;;;;;;;;10.10;99.90;;;;;;5074073;28;19997;-68
2023/07/10 10:52:57;;;;;;;;;;;10.10;99.90;;;;;;5071679;28;19992;-68
2023/07/10 10:55:33;;;;;;;;;;;10.00;99.90;;;;;;5074034;28;20369;-69
2023/07/10 10:58:04;;;;;;;;;;;10.00;99.90;;;;;;5072473;28;24134;-68
2023/07/10 11:00:34;;;;;;;;;;;9.90;99.90;;;;;;5072669;28;20355;-69
2023/07/10 11:03:19;;;;;;;;;;;9.80;99.90;;;;;;5073922;28;19904;-70
2023/07/10 11:05:48;;;;;;;;;;;9.80;99.90;;;;;;5074151;28;19912;-68
2023/07/10 11:08:41;;;;;;;;;;;9.70;99.90;;;;;;5073764;28;19930;-67
2023/07/10 11:11:14;;;;;;;;;;;9.70;99.90;;;;;;5072599;28;24110;-68
2023/07/10 11:13:41;;;;;;;;;;;9.60;99.90;;;;;;5073423;28;24059;-67
2023/07/10 11:16:10;;;;;;;;;;;9.60;99.90;;;;;;5073500;28;19904;-67
2023/07/10 11:18:38;;;;;;;;;;;9.50;99.90;;;;;;5073861;28;24069;-67
2023/07/10 11:21:05;;;;;;;;;;;9.50;99.90;;;;;;5073586;28;20319;-67
2023/07/10 11:23:37;;;;;;;;;;;9.40;99.90;;;;;;5071207;28;19920;-67
2023/07/10 11:26:08;;;;;;;;;;;9.40;99.90;;;;;;5072610;28;24079;-67
2023/07/10 11:28:35;;;;;;;;;;;9.40;99.90;;;;;;5072537;28;19945;-67
2023/07/10 11:31:20;;;;;;;;;;;9.30;99.90;;;;;;5072539;28;24121;-69
2023/07/10 11:33:51;;;;;;;;;;;9.30;99.90;;;;;;5072407;28;24075;-68
2023/07/10 11:36:27;;;;;;;;;;;9.20;99.90;;;;;;5071208;28;19904;-68
2023/07/10 11:38:55;;;;;;;;;;;9.20;99.90;;;;;;5073007;28;19904;-69
2023/07/10 11:41:27;;;;;;;;;;;9.20;99.90;;;;;;5072671;28;19934;-69
2023/07/10 11:43:54;;;;;;;;;;;9.20;99.90;;;;;;5072338;28;19908;-68
2023/07/10 11:46:24;;;;;;;;;;;9.20;99.90;;;;;;5072525;28;19905;-69
2023/07/10 11:49:00;;;;;;;;;;;9.20;99.90;;;;;;5072605;28;24052;-68
2023/07/10 11:51:28;;;;;;;;;;;9.10;99.90;;;;;;5072701;28;19919;-69
2023/07/10 11:54:13;;;;;;;;;;;9.10;99.90;;;;;;5072316;28;19987;-68
2023/07/10 11:56:59;;;;;;;;;;;9.10;99.90;;;;;;5072761;28;19940;-68
2023/07/10 11:59:26;;;;;;;;;;;9.00;99.90;;;;;;5070818;28;24071;-69
2023/07/10 12:01:53;;;;;;;;;;;8.90;99.90;;;;;;5072418;28;19904;-69
2023/07/10 12:04:22;;;;;;;;;;;8.90;99.90;;;;;;5071001;28;20007;-68
2023/07/10 12:06:49;;;;;;;;;;;8.90;99.90;;;;;;5072190;28;24076;-70
2023/07/10 12:09:16;;;;;;;;;;;8.80;99.90;;;;;;5072216;28;19904;-67
2023/07/10 12:11:45;;;;;;;;;;;8.80;99.90;;;;;;5072329;28;19999;-68
2023/07/10 12:14:14;;;;;;;;;;;8.70;99.90;;;;;;5072013;28;24112;-68
2023/07/10 12:16:54;;;;;;;;;;;8.80;99.90;;;;;;5071969;28;19998;-69
2023/07/10 12:19:24;;;;;;;;;;;8.70;99.90;;;;;;5072146;28;19904;-69
2023/07/10 12:21:51;;;;;;;;;;;8.70;99.90;;;;;;4949443;28;3507469;-68
2023/07/10 12:24:19;;;;;;;;;;;8.70;99.90;;;;;;5071665;28;19916;-68
2023/07/10 12:26:56;;;;;;;;;;;8.60;99.90;;;;;;5072845;28;19908;-68
2023/07/10 12:29:23;;;;;;;;;;;8.60;99.90;;;;;;5071623;28;19931;-68
2023/07/10 12:31:50;;;;;;;;;;;8.50;99.90;;;;;;5071228;28;19966;-68
2023/07/10 12:34:19;;;;;;;;;;;8.50;99.90;;;;;;5072738;28;19908;-68
2023/07/10 12:36:49;;;;;;;;;;;8.40;99.90;;;;;;5073108;28;19905;-68
2023/07/10 12:39:16;;;;;;;;;;;8.40;99.90;;;;;;5072598;28;19912;-68
2023/07/10 12:41:47;;;;;;;;;;;8.40;99.90;;;;;;5073137;28;19904;-69
2023/07/10 12:44:36;;;;;;;;;;;8.40;99.90;;;;;;5072762;28;20467;-67
2023/07/10 12:47:04;;;;;;;;;;;8.30;99.90;;;;;;5070813;28;19904;-69
2023/07/10 12:49:32;;;;;;;;;;;8.20;99.90;;;;;;5072575;28;19908;-67
2023/07/10 12:52:00;;;;;;;;;;;8.10;99.90;;;;;;5072749;28;19930;-68
2023/07/10 12:54:33;;;;;;;;;;;8.10;99.90;;;;;;5072729;28;19991;-68
2023/07/10 12:57:00;;;;;;;;;;;8.00;99.90;;;;;;5071337;28;19904;-68
2023/07/10 12:59:31;;;;;;;;;;;8.00;99.90;;;;;;5072712;28;19939;-67
2023/07/10 13:02:02;;;;;;;;;;;8.00;99.90;;;;;;5073004;28;19954;-69
2023/07/10 13:04:34;;;;;;;;;;;7.90;99.90;;;;;;5072683;28;25108;-67
2023/07/10 13:07:02;;;;;;;;;;;7.90;99.90;;;;;;5072703;28;19950;-67
2023/07/10 13:09:31;;;;;;;;;;;7.80;99.90;;;;;;5071597;28;19904;-69
2023/07/10 13:11:58;;;;;;;;;;;7.70;99.90;;;;;;5072676;28;24114;-67
2023/07/10 13:14:26;;;;;;;;;;;7.60;99.90;;;;;;5072197;28;19947;-67
2023/07/10 13:16:54;;;;;;;;;;;7.60;99.90;;;;;;5076101;28;19950;-67
2023/07/10 13:19:21;;;;;;;;;;;7.50;99.90;;;;;;5076916;28;19911;-67
2023/07/10 13:21:48;;;;;;;;;;;7.50;99.90;;;;;;5076057;28;19916;-66
2023/07/10 13:24:14;;;;;;;;;;;7.60;99.90;;;;;;5076174;28;20410;-67
2023/07/10 13:26:44;;;;;;;;;;;7.50;99.90;;;;;;5075930;28;20243;-67
2023/07/10 13:29:14;;;;;;;;;;;7.50;99.90;;;;;;5075032;28;20350;-66
2023/07/10 13:31:42;;;;;;;;;;;7.50;99.90;;;;;;5076060;28;19904;-67
2023/07/10 13:34:11;;;;;;;;;;;7.40;99.90;;;;;;5074662;28;24116;-69
2023/07/10 13:36:39;;;;;;;;;;;7.30;99.90;;;;;;5075847;28;24067;-67
2023/07/10 13:39:16;;;;;;;;;;;7.30;99.90;;;;;;5076191;28;19973;-70
2023/07/10 13:41:43;;;;;;;;;;;7.30;99.90;;;;;;5076121;28;20315;-68
2023/07/10 13:44:10;;;;;;;;;;;7.20;99.90;;;;;;5075688;28;19958;-68
2023/07/10 13:46:38;;;;;;;;;;;7.20;99.90;;;;;;5074431;28;19904;-67
2023/07/10 13:49:05;;;;;;;;;;;7.20;99.90;;;;;;5075925;28;19905;-67
2023/07/10 13:51:33;;;;;;;;;;;7.10;99.90;;;;;;5075783;28;20266;-67
2023/07/10 13:54:00;;;;;;;;;;;7.10;99.90;;;;;;5074359;28;19904;-68
2023/07/10 13:56:34;;;;;;;;;;;7.00;99.90;;;;;;5075674;28;20000;-67
2023/07/10 13:59:02;;;;;;;;;;;6.90;99.90;;;;;;5074506;28;20332;-67
2023/07/10 14:01:29;;;;;;;;;;;6.90;99.90;;;;;;5075268;28;19952;-68
2023/07/10 14:03:56;;;;;;;;;;;6.90;99.90;;;;;;5075869;28;19974;-67
2023/07/10 14:06:23;;;;;;;;;;;6.90;99.90;;;;;;5074061;28;19912;-67
2023/07/10 14:08:53;;;;;;;;;;;6.90;99.90;;;;;;5075878;28;19911;-67
2023/07/10 14:11:20;;;;;;;;;;;6.80;99.90;;;;;;5075554;28;24097;-68
2023/07/10 14:13:48;;;;;;;;;;;6.70;99.90;;;;;;5075312;28;19983;-67
2023/07/10 14:16:20;;;;;;;;;;;6.70;99.90;;;;;;5075217;28;24052;-67
2023/07/10 14:18:47;;;;;;;;;;;6.70;99.90;;;;;;5075569;28;19910;-68
2023/07/10 14:21:14;;;;;;;;;;;6.70;99.90;;;;;;5075214;28;20369;-67
2023/07/10 14:23:41;;;;;;;;;;;6.60;99.90;;;;;;5074734;28;24084;-67
2023/07/10 14:26:13;;;;;;;;;;;6.50;99.90;;;;;;5072720;28;20020;-66
2023/07/10 14:28:40;;;;;;;;;;;6.50;99.90;;;;;;5075123;28;20312;-67
2023/07/10 14:31:10;;;;;;;;;;;6.50;99.90;;;;;;5073634;28;19936;-67
2023/07/10 14:33:37;;;;;;;;;;;6.50;99.90;;;;;;5075016;28;19966;-67